createdAt,value
2018-01-21T00:02:14.765Z,40.97
2018-01-21T00:04:42.188Z,37.90
2018-01-21T00:07:09.597Z,36.00
2018-01-21T00:09:37.032Z,34.30
2018-01-21T00:12:04.439Z,37.63
2018-01-21T00:14:31.865Z,36.00
2018-01-21T00:16:59.288Z,40.80
2018-01-21T00:19:26.725Z,37.75
2018-01-21T00:21:54.144Z,40.00
2018-01-21T00:24:21.882Z,35.43
2018-01-21T00:26:49.305Z,38.53
2018-01-21T00:29:16.721Z,41.85
2018-01-21T00:31:44.153Z,39.05
2018-01-21T00:34:11.564Z,39.80
2018-01-21T00:36:38.973Z,43.40
2018-01-21T00:39:06.388Z,37.40
2018-01-21T00:41:33.792Z,43.10
2018-01-21T00:44:01.222Z,43.45
2018-01-21T00:46:28.644Z,47.23
2018-01-21T00:48:56.086Z,45.75
2018-01-21T00:51:23.521Z,46.22
2018-01-21T00:53:51.401Z,47.28
2018-01-21T00:56:18.906Z,48.38
2018-01-21T00:58:46.377Z,47.67
2018-01-21T01:01:14.085Z,49.45
2018-01-21T01:03:41.511Z,50.85
2018-01-21T01:06:08.936Z,53.70
2018-01-21T01:08:36.360Z,52.20
2018-01-21T01:11:03.769Z,51.13
2018-01-21T01:13:31.189Z,49.10
2018-01-21T01:15:58.613Z,50.42
2018-01-21T01:18:26.044Z,52.10
2018-01-21T01:20:53.464Z,55.12
2018-01-21T01:23:20.893Z,51.15
2018-01-21T01:25:48.301Z,56.23
2018-01-21T01:28:15.708Z,55.80
2018-01-21T01:30:43.144Z,57.78
2018-01-21T01:33:10.560Z,55.28
2018-01-21T01:35:37.964Z,54.90
2018-01-21T01:38:05.403Z,56.47
2018-01-21T01:40:32.824Z,53.78
2018-01-21T01:43:00.225Z,58.40
2018-01-21T01:45:27.645Z,53.07
2018-01-21T01:47:55.053Z,51.90
2018-01-21T01:50:22.453Z,46.10
2018-01-21T01:52:50.142Z,47.80
2018-01-21T01:55:17.549Z,51.10
2018-01-21T01:57:44.961Z,50.23
2018-01-21T02:00:12.372Z,52.37
2018-01-21T02:02:39.778Z,48.27
2018-01-21T02:05:07.197Z,43.40
2018-01-21T02:07:34.621Z,43.03
2018-01-21T02:10:02.037Z,42.95
2018-01-21T02:12:29.456Z,43.80
2018-01-21T02:14:56.884Z,36.55
2018-01-21T02:17:24.292Z,42.75
2018-01-21T02:19:51.700Z,42.30
2018-01-21T02:22:19.116Z,40.05
2018-01-21T02:24:46.530Z,39.15
2018-01-21T02:27:13.936Z,43.38
2018-01-21T02:29:41.679Z,41.08
2018-01-21T02:32:09.087Z,42.60
2018-01-21T02:34:36.512Z,38.85
2018-01-21T02:37:03.941Z,40.17
2018-01-21T02:39:31.361Z,35.47
2018-01-21T02:41:58.773Z,36.47
2018-01-21T02:44:26.534Z,39.65
2018-01-21T02:46:53.949Z,36.65
2018-01-21T02:49:21.373Z,37.22
2018-01-21T02:51:48.797Z,36.85
2018-01-21T02:54:16.220Z,35.75
2018-01-21T02:56:43.628Z,39.45
2018-01-21T02:59:11.068Z,32.72
2018-01-21T03:01:38.489Z,35.60
2018-01-21T03:04:05.892Z,33.42
2018-01-21T03:06:33.313Z,36.50
2018-01-21T03:09:00.713Z,34.10
2018-01-21T03:11:28.125Z,36.40
2018-01-21T03:13:55.544Z,33.92
2018-01-21T03:16:22.952Z,32.25
2018-01-21T03:18:50.382Z,35.15
2018-01-21T03:21:17.813Z,35.10
2018-01-21T03:23:45.221Z,34.25
2018-01-21T03:26:12.653Z,33.92
2018-01-21T03:28:40.077Z,32.00
2018-01-21T03:31:07.488Z,32.10
2018-01-21T03:33:34.901Z,34.40
2018-01-21T03:36:02.350Z,36.38
2018-01-21T03:38:29.752Z,33.97
2018-01-21T03:40:57.169Z,33.70
2018-01-21T03:43:24.601Z,32.95
2018-01-21T03:45:52.016Z,32.97
2018-01-21T03:48:19.430Z,32.75
2018-01-21T03:50:46.851Z,31.95
2018-01-21T03:53:14.285Z,33.35
2018-01-21T03:55:41.700Z,30.30
2018-01-21T03:58:09.540Z,30.42
2018-01-21T04:00:36.961Z,33.50
2018-01-21T04:03:04.378Z,29.02
2018-01-21T04:05:31.800Z,31.77
2018-01-21T04:07:59.229Z,32.08
2018-01-21T04:10:26.650Z,29.80
2018-01-21T04:12:54.076Z,31.33
2018-01-21T04:15:21.496Z,29.33
2018-01-21T04:17:48.916Z,28.50
2018-01-21T04:20:16.714Z,32.33
2018-01-21T04:22:44.116Z,28.87
2018-01-21T04:25:11.540Z,28.30
2018-01-21T04:27:38.957Z,33.92
2018-01-21T04:30:06.366Z,26.60
2018-01-21T04:32:33.785Z,30.17
2018-01-21T04:35:01.590Z,32.67
2018-01-21T04:37:29.004Z,29.35
2018-01-21T04:39:56.421Z,29.05
2018-01-21T04:42:23.840Z,29.48
2018-01-21T04:44:51.262Z,29.92
2018-01-21T04:47:18.670Z,30.20
2018-01-21T04:49:46.102Z,32.53
2018-01-21T04:52:13.509Z,30.70
2018-01-21T04:54:40.914Z,33.33
2018-01-21T04:57:08.686Z,30.70
2018-01-21T04:59:36.111Z,32.58
2018-01-21T05:02:03.521Z,30.35
2018-01-21T05:04:30.953Z,32.25
2018-01-21T05:06:58.369Z,32.38
2018-01-21T05:09:25.776Z,34.00
2018-01-21T05:11:53.196Z,37.45
2018-01-21T05:14:20.664Z,29.95
2018-01-21T05:16:48.068Z,32.45
2018-01-21T05:19:15.825Z,32.03
2018-01-21T05:21:43.236Z,36.60
2018-01-21T05:24:10.654Z,34.80
2018-01-21T05:26:38.068Z,34.90
2018-01-21T05:29:05.481Z,38.60
2018-01-21T05:31:32.913Z,32.38
2018-01-21T05:34:00.340Z,36.90
2018-01-21T05:36:27.752Z,37.13
2018-01-21T05:38:55.172Z,34.03
2018-01-21T05:41:22.932Z,36.97
2018-01-21T05:43:50.358Z,39.97
2018-01-21T05:46:17.772Z,36.58
2018-01-21T05:48:45.206Z,39.13
2018-01-21T05:51:12.624Z,41.37
2018-01-21T05:53:40.037Z,43.05
2018-01-21T05:56:07.485Z,39.70
2018-01-21T05:58:34.901Z,35.28
2018-01-21T06:01:02.324Z,40.20
2018-01-21T06:03:29.758Z,38.60
2018-01-21T06:05:57.172Z,40.03
2018-01-21T06:08:24.585Z,44.97
2018-01-21T06:10:52.472Z,38.65
2018-01-21T06:13:19.869Z,43.95
2018-01-21T06:15:47.286Z,46.37
2018-01-21T06:18:14.709Z,44.80
2018-01-21T06:20:42.125Z,38.55
2018-01-21T06:23:09.532Z,38.83
2018-01-21T06:25:36.985Z,41.63
2018-01-21T06:28:22.805Z,44.53
2018-01-21T06:30:50.229Z,39.22
2018-01-21T06:33:17.641Z,39.88
2018-01-21T06:35:45.053Z,37.88
2018-01-21T06:38:12.485Z,38.70
2018-01-21T06:40:39.901Z,39.10
2018-01-21T06:43:07.310Z,37.45
2018-01-21T06:45:34.766Z,40.12
2018-01-21T06:48:02.190Z,36.78
2018-01-21T06:50:29.599Z,40.45
2018-01-21T06:52:57.038Z,34.00
2018-01-21T06:55:24.450Z,33.33
2018-01-21T06:57:51.873Z,33.53
2018-01-21T07:00:19.301Z,34.90
2018-01-21T07:02:46.745Z,31.83
2018-01-21T07:05:14.161Z,32.90
2018-01-21T07:07:41.650Z,34.13
2018-01-21T07:10:09.065Z,32.00
2018-01-21T07:12:36.489Z,32.00
2018-01-21T07:15:03.911Z,34.28
2018-01-21T07:17:31.321Z,31.25
2018-01-21T07:19:58.736Z,35.40
2018-01-21T07:22:26.166Z,34.78
2018-01-21T07:24:53.584Z,30.90
2018-01-21T07:27:21.010Z,35.95
2018-01-21T07:29:48.866Z,35.67
2018-01-21T07:32:16.289Z,35.35
2018-01-21T07:34:43.705Z,34.35
2018-01-21T07:37:11.129Z,30.52
2018-01-21T07:39:38.549Z,29.92
2018-01-21T07:42:05.965Z,32.97
2018-01-21T07:44:33.394Z,34.60
2018-01-21T07:47:00.812Z,31.37
2018-01-21T07:49:28.236Z,29.02
2018-01-21T07:51:55.673Z,30.48
2018-01-21T07:54:23.093Z,30.12
2018-01-21T07:56:50.513Z,31.35
2018-01-21T07:59:17.940Z,30.45
2018-01-21T08:01:45.365Z,31.40
2018-01-21T08:04:12.781Z,30.55
2018-01-21T08:06:40.518Z,33.92
2018-01-21T08:09:07.932Z,31.92
2018-01-21T08:11:35.340Z,30.07
2018-01-21T08:14:02.768Z,29.98
2018-01-21T08:16:30.184Z,28.77
2018-01-21T08:18:57.609Z,26.23
2018-01-21T08:21:25.351Z,26.67
2018-01-21T08:23:52.823Z,25.20
2018-01-21T08:26:20.185Z,27.02
2018-01-21T08:28:47.634Z,27.27
2018-01-21T08:31:15.049Z,25.97
2018-01-21T08:36:48.448Z,28.42
2018-01-21T08:39:21.545Z,27.98
2018-01-21T08:41:52.500Z,25.70
2018-01-21T08:44:20.826Z,26.13
2018-01-21T08:46:54.707Z,25.20
2018-01-21T08:49:22.215Z,25.12
2018-01-21T08:51:53.313Z,26.10
2018-01-21T08:54:20.749Z,25.50
2018-01-21T08:56:48.214Z,24.77
2018-01-21T08:59:15.666Z,33.25
2018-01-21T09:01:43.072Z,24.17
2018-01-21T09:04:10.496Z,24.37
2018-01-21T09:06:37.923Z,23.65
2018-01-21T09:09:05.333Z,21.93
2018-01-21T09:11:32.787Z,22.83
2018-01-21T09:14:00.219Z,24.70
2018-01-21T09:16:27.632Z,23.77
2018-01-21T09:18:55.073Z,23.80
2018-01-21T09:21:22.498Z,21.15
2018-01-21T09:23:49.926Z,22.05
2018-01-21T09:26:17.361Z,21.62
2018-01-21T09:28:44.777Z,20.60
2018-01-21T09:31:12.221Z,20.00
2018-01-21T09:33:39.636Z,19.40
2018-01-21T09:36:07.061Z,20.52
2018-01-21T09:38:34.481Z,20.35
2018-01-21T09:41:01.912Z,21.48
2018-01-21T09:43:29.373Z,19.80
2018-01-21T09:45:56.828Z,20.70
2018-01-21T09:48:24.616Z,20.05
2018-01-21T09:50:52.037Z,20.03
2018-01-21T09:53:19.467Z,19.73
2018-01-21T09:55:46.881Z,19.30
2018-01-21T09:58:14.289Z,19.03
2018-01-21T10:00:41.695Z,19.40
2018-01-21T10:03:09.112Z,18.90
2018-01-21T10:05:36.537Z,18.95
2018-01-21T10:08:03.949Z,20.77
2018-01-21T10:10:31.364Z,19.03
2018-01-21T10:12:58.776Z,19.03
2018-01-21T10:15:26.185Z,18.90
2018-01-21T10:17:54.099Z,18.30
2018-01-21T10:20:21.504Z,18.40
2018-01-21T10:22:48.921Z,18.93
2018-01-21T10:25:16.349Z,18.30
2018-01-21T10:27:43.777Z,17.33
2018-01-21T10:30:11.196Z,18.43
2018-01-21T10:32:38.925Z,21.73
2018-01-21T10:35:06.328Z,18.03
2018-01-21T10:37:33.748Z,21.83
2018-01-21T10:40:01.168Z,19.63
2018-01-21T10:42:28.602Z,17.97
2018-01-21T10:44:56.021Z,17.83
2018-01-21T10:47:23.820Z,17.30
2018-01-21T10:49:51.257Z,16.83
2018-01-21T10:52:18.688Z,15.50
2018-01-21T10:54:46.160Z,16.10
2018-01-21T10:57:13.560Z,15.27
2018-01-21T10:59:40.969Z,13.80
2018-01-21T11:02:08.644Z,15.57
2018-01-21T11:04:36.049Z,16.43
2018-01-21T11:07:03.465Z,14.70
2018-01-21T11:09:30.883Z,14.67
2018-01-21T11:11:58.871Z,16.10
2018-01-21T11:14:26.276Z,16.37
2018-01-21T11:17:05.612Z,15.13
2018-01-21T11:19:33.094Z,14.50
2018-01-21T11:22:14.361Z,16.20
2018-01-21T11:24:41.775Z,16.40
2018-01-21T11:27:09.184Z,15.60
2018-01-21T11:29:36.608Z,14.83
2018-01-21T11:32:04.013Z,14.30
2018-01-21T11:34:31.420Z,15.00
2018-01-21T11:36:58.841Z,14.30
2018-01-21T11:39:26.249Z,14.23
2018-01-21T11:41:53.702Z,16.23
2018-01-21T11:44:21.125Z,15.40
2018-01-21T11:46:48.533Z,16.27
2018-01-21T11:49:15.945Z,15.90
2018-01-21T11:51:43.361Z,16.67
2018-01-21T11:54:10.764Z,15.73
2018-01-21T11:56:38.200Z,16.97
2018-01-21T11:59:05.617Z,15.43
2018-01-21T12:01:33.061Z,16.30
2018-01-21T12:04:00.477Z,16.73
2018-01-21T12:06:27.888Z,21.23
2018-01-21T12:08:55.312Z,17.57
2018-01-21T12:11:22.741Z,17.03
2018-01-21T12:13:54.145Z,16.33
2018-01-21T12:16:21.573Z,15.57
2018-01-21T12:18:49.010Z,18.07
2018-01-21T12:21:16.430Z,17.13
2018-01-21T12:23:43.850Z,16.47
2018-01-21T12:26:11.585Z,17.70
2018-01-21T12:28:38.992Z,17.80
2018-01-21T12:31:06.405Z,17.87
2018-01-21T12:33:33.824Z,19.40
2018-01-21T12:36:01.241Z,17.73
2018-01-21T12:38:28.648Z,16.10
2018-01-21T12:40:56.151Z,17.13
2018-01-21T12:43:23.569Z,16.20
2018-01-21T12:45:50.968Z,16.53
2018-01-21T12:48:18.902Z,17.57
2018-01-21T12:50:46.580Z,16.57
2018-01-21T12:53:13.981Z,18.17
2018-01-21T12:55:41.778Z,19.13
2018-01-21T12:58:09.221Z,18.47
2018-01-21T13:00:36.641Z,19.40
2018-01-21T13:03:04.188Z,18.43
2018-01-21T13:05:31.671Z,17.53
2018-01-21T13:08:00.075Z,18.97
2018-01-21T13:10:27.845Z,19.57
2018-01-21T13:12:55.527Z,20.73
2018-01-21T13:15:23.022Z,19.53
2018-01-21T13:17:50.454Z,20.60
2018-01-21T13:20:17.865Z,21.57
2018-01-21T13:22:45.940Z,20.73
2018-01-21T13:25:13.608Z,18.30
2018-01-21T13:27:41.961Z,19.27
2018-01-21T13:30:09.725Z,19.83
2018-01-21T13:32:37.182Z,21.43
2018-01-21T13:35:04.634Z,19.93
2018-01-21T13:37:32.094Z,18.73
2018-01-21T13:39:59.521Z,17.53
2018-01-21T13:42:26.918Z,17.97
2018-01-21T13:44:54.397Z,17.40
2018-01-21T13:47:22.783Z,16.20
2018-01-21T13:49:51.189Z,16.43
2018-01-21T13:52:19.714Z,16.17
2018-01-21T13:54:47.374Z,19.20
2018-01-21T13:57:14.802Z,15.03
2018-01-21T13:59:42.208Z,14.63
2018-01-21T14:02:09.641Z,16.07
2018-01-21T14:04:37.048Z,14.03
2018-01-21T14:07:04.477Z,16.37
2018-01-21T14:09:33.245Z,17.40
2018-01-21T14:12:00.651Z,14.60
2018-01-21T14:14:29.857Z,15.23
2018-01-21T14:16:57.278Z,14.70
2018-01-21T14:19:24.720Z,15.73
2018-01-21T14:21:52.213Z,15.20
2018-01-21T14:24:19.652Z,13.30
2018-01-21T14:26:47.064Z,14.47
2018-01-21T14:29:14.520Z,14.90
2018-01-21T14:31:41.943Z,16.07
2018-01-21T14:34:09.352Z,15.33
2018-01-21T14:36:36.760Z,15.40
2018-01-21T14:39:04.490Z,14.20
2018-01-21T14:41:31.897Z,16.20
2018-01-21T14:43:59.301Z,15.50
2018-01-21T14:46:26.727Z,14.87
2018-01-21T14:48:54.124Z,14.23
2018-01-21T14:51:21.532Z,18.10
2018-01-21T14:53:48.953Z,15.23
2018-01-21T14:56:16.373Z,15.73
2018-01-21T14:58:43.781Z,14.90
2018-01-21T15:01:11.605Z,15.60
2018-01-21T15:03:39.009Z,16.97
2018-01-21T15:06:06.424Z,16.23
2018-01-21T15:08:34.177Z,17.60
2018-01-21T15:11:01.588Z,17.43
2018-01-21T15:13:29.000Z,16.77
2018-01-21T15:15:56.416Z,16.67
2018-01-21T15:18:23.865Z,17.53
2018-01-21T15:20:51.268Z,17.10
2018-01-21T15:23:18.696Z,16.33
2018-01-21T15:25:46.105Z,16.90
2018-01-21T15:28:13.522Z,15.27
2018-01-21T15:30:40.942Z,15.73
2018-01-21T15:33:08.413Z,15.07
2018-01-21T15:35:35.816Z,15.33
2018-01-21T15:38:03.237Z,16.30
2018-01-21T15:40:30.644Z,15.47
2018-01-21T15:42:58.057Z,15.70
2018-01-21T15:45:25.469Z,15.03
2018-01-21T15:47:52.950Z,14.70
2018-01-21T15:50:20.360Z,14.73
2018-01-21T15:52:47.781Z,14.53
2018-01-21T15:55:15.189Z,14.87
2018-01-21T15:57:42.625Z,14.80
2018-01-21T16:00:10.044Z,14.80
2018-01-21T16:02:37.458Z,14.80
2018-01-21T16:05:04.898Z,16.00
2018-01-21T16:07:32.742Z,17.90
2018-01-21T16:10:00.152Z,15.00
2018-01-21T16:12:27.560Z,15.13
2018-01-21T16:14:54.980Z,17.00
2018-01-21T16:17:22.384Z,17.17
2018-01-21T16:19:49.794Z,17.23
2018-01-21T16:22:17.219Z,18.60
2018-01-21T16:24:44.625Z,16.73
2018-01-21T16:27:12.038Z,17.03
2018-01-21T16:29:39.460Z,16.27
2018-01-21T16:32:06.876Z,17.20
2018-01-21T16:34:34.312Z,18.20
2018-01-21T16:37:01.714Z,16.87
2018-01-21T16:39:29.132Z,17.80
2018-01-21T16:41:56.545Z,18.87
2018-01-21T16:44:24.264Z,20.03
2018-01-21T16:46:51.681Z,20.83
2018-01-21T16:49:19.100Z,19.47
2018-01-21T16:51:46.531Z,18.40
2018-01-21T16:54:13.936Z,18.73
2018-01-21T16:56:41.345Z,18.63
2018-01-21T16:59:08.772Z,19.30
2018-01-21T17:01:36.189Z,20.67
2018-01-21T17:04:03.608Z,22.40
2018-01-21T17:06:31.305Z,17.67
2018-01-21T17:08:58.748Z,18.13
2018-01-21T17:11:26.192Z,18.40
2018-01-21T17:13:53.741Z,19.70
2018-01-21T17:16:21.172Z,19.77
2018-01-21T17:18:48.581Z,19.70
2018-01-21T17:21:16.005Z,23.10
2018-01-21T17:23:43.421Z,23.27
2018-01-21T17:26:10.838Z,24.43
2018-01-21T17:28:38.274Z,26.63
2018-01-21T17:31:05.686Z,26.23
2018-01-21T17:33:33.090Z,22.67
2018-01-21T17:36:00.528Z,25.10
2018-01-21T17:38:27.957Z,23.63
2018-01-21T17:40:55.393Z,20.50
2018-01-21T17:43:23.161Z,20.30
2018-01-21T17:45:50.580Z,21.52
2018-01-21T17:48:17.996Z,21.57
2018-01-21T17:50:45.404Z,20.53
2018-01-21T17:53:12.837Z,20.63
2018-01-21T17:55:40.234Z,20.17
2018-01-21T17:58:07.719Z,22.47
2018-01-21T18:00:35.201Z,20.75
2018-01-21T18:03:02.681Z,22.27
2018-01-21T18:05:30.686Z,20.90
2018-01-21T18:07:58.967Z,19.80
2018-01-21T18:10:26.494Z,18.30
2018-01-21T18:12:53.925Z,19.10
2018-01-21T18:15:21.328Z,18.23
2018-01-21T18:17:48.756Z,17.37
2018-01-21T18:20:16.180Z,18.70
2018-01-21T18:22:43.584Z,18.80
2018-01-21T18:25:11.020Z,16.50
2018-01-21T18:27:38.441Z,17.37
2018-01-21T18:30:05.869Z,18.92
2018-01-21T18:32:33.393Z,18.52
2018-01-21T18:35:01.152Z,16.62
2018-01-21T18:37:28.584Z,17.30
2018-01-21T18:39:56.606Z,18.02
2018-01-21T18:42:24.773Z,20.10
2018-01-21T18:44:52.221Z,19.75
2018-01-21T18:47:20.425Z,18.42
2018-01-21T18:49:47.857Z,18.58
2018-01-21T18:52:15.303Z,18.02
2018-01-21T18:54:42.733Z,18.05
2018-01-21T18:57:10.409Z,17.50
2018-01-21T18:59:37.828Z,17.92
2018-01-21T19:02:05.261Z,17.25
2018-01-21T19:04:33.160Z,17.23
2018-01-21T19:07:00.612Z,17.27
2018-01-21T19:09:28.049Z,19.85
2018-01-21T19:11:55.491Z,18.10
2018-01-21T19:14:22.904Z,17.37
2018-01-21T19:16:50.395Z,17.80
2018-01-21T19:19:18.191Z,17.83
2018-01-21T19:21:45.617Z,17.95
2018-01-21T19:24:13.024Z,18.10
2018-01-21T19:26:40.761Z,18.25
2018-01-21T19:29:08.177Z,18.40
2018-01-21T19:31:35.601Z,17.33
2018-01-21T19:34:03.265Z,18.42
2018-01-21T19:36:30.691Z,19.30
2018-01-21T19:39:03.712Z,17.70
2018-01-21T19:41:36.652Z,18.52
2018-01-21T19:44:04.113Z,17.20
2018-01-21T19:46:31.533Z,18.37
2018-01-21T19:48:58.965Z,17.47
2018-01-21T19:51:26.798Z,17.90
2018-01-21T19:53:54.237Z,18.52
2018-01-21T19:56:21.661Z,18.55
2018-01-21T19:58:56.753Z,18.13
2018-01-21T20:01:24.285Z,17.98
2018-01-21T20:03:51.818Z,18.60
2018-01-21T20:06:19.317Z,18.30
2018-01-21T20:08:46.740Z,17.30
2018-01-21T20:11:14.168Z,18.45
2018-01-21T20:13:41.700Z,17.50
2018-01-21T20:16:13.124Z,19.58
2018-01-21T20:18:40.581Z,19.17
2018-01-21T20:21:08.374Z,19.50
2018-01-21T20:23:35.801Z,18.67
2018-01-21T20:26:03.216Z,19.53
2018-01-21T20:28:31.049Z,18.45
2018-01-21T20:30:58.468Z,17.87
2018-01-21T20:33:25.897Z,17.67
2018-01-21T20:35:53.341Z,18.48
2018-01-21T20:38:20.785Z,18.37
2018-01-21T20:40:48.244Z,17.27
2018-01-21T20:43:15.681Z,17.60
2018-01-21T20:45:43.109Z,23.08
2018-01-21T20:48:10.525Z,20.10
2018-01-21T20:50:38.300Z,18.80
2018-01-21T20:53:11.364Z,18.10
2018-01-21T20:55:38.786Z,20.12
2018-01-21T20:58:06.209Z,19.30
2018-01-21T21:00:33.652Z,18.98
2018-01-21T21:03:01.090Z,19.83
2018-01-21T21:05:28.509Z,19.15
2018-01-21T21:07:55.925Z,19.33
2018-01-21T21:10:23.644Z,18.83
2018-01-21T21:12:51.073Z,22.35
2018-01-21T21:15:18.499Z,17.37
2018-01-21T21:17:45.921Z,17.62
2018-01-21T21:20:13.352Z,21.80
2018-01-21T21:22:40.770Z,18.35
2018-01-21T21:25:08.189Z,17.87
2018-01-21T21:27:35.613Z,17.40
2018-01-21T21:30:03.031Z,16.42
2018-01-21T21:32:30.533Z,18.15
2018-01-21T21:34:57.944Z,17.40
2018-01-21T21:37:25.344Z,16.90
2018-01-21T21:39:52.776Z,17.62
2018-01-21T21:42:20.198Z,17.53
2018-01-21T21:44:47.617Z,16.80
2018-01-21T21:47:15.042Z,16.57
2018-01-21T21:49:42.469Z,18.05
2018-01-21T21:52:09.950Z,17.58
2018-01-21T21:54:37.678Z,17.17
2018-01-21T21:57:05.105Z,16.08
2018-01-21T21:59:32.527Z,17.30
2018-01-21T22:02:00.258Z,18.70
2018-01-21T22:04:27.680Z,17.35
2018-01-21T22:06:55.096Z,18.70
2018-01-21T22:09:22.524Z,17.75
2018-01-21T22:11:49.952Z,18.42
2018-01-21T22:14:17.381Z,17.48
2018-01-21T22:16:44.806Z,17.87
2018-01-21T22:19:12.204Z,18.60
2018-01-21T22:21:39.628Z,18.00
2018-01-21T22:24:07.061Z,17.00
2018-01-21T22:26:34.481Z,18.37
2018-01-21T22:29:01.901Z,17.45
2018-01-21T22:31:29.338Z,18.65
2018-01-21T22:33:56.740Z,18.43
2018-01-21T22:36:24.142Z,18.53
2018-01-21T22:38:51.558Z,19.57
2018-01-21T22:41:18.952Z,18.40
2018-01-21T22:43:46.361Z,18.47
2018-01-21T22:46:14.156Z,20.27
2018-01-21T22:48:41.574Z,19.98
2018-01-21T22:51:08.993Z,19.77
2018-01-21T22:53:36.425Z,19.50
2018-01-21T22:56:03.845Z,19.65
2018-01-21T22:58:31.249Z,20.27
2018-01-21T23:00:59.130Z,19.80
2018-01-21T23:03:26.550Z,18.92
2018-01-21T23:05:53.977Z,19.05
2018-01-21T23:08:21.408Z,20.45
2018-01-21T23:10:48.824Z,18.25
2018-01-21T23:13:16.240Z,21.08
2018-01-21T23:15:43.658Z,20.45
2018-01-21T23:18:11.068Z,19.73
2018-01-21T23:20:50.449Z,20.17
2018-01-21T23:23:17.869Z,21.37
2018-01-21T23:25:45.290Z,19.00
2018-01-21T23:28:12.720Z,20.08
2018-01-21T23:30:40.138Z,19.00
2018-01-21T23:33:07.562Z,20.27
2018-01-21T23:35:34.985Z,20.27
2018-01-21T23:38:02.425Z,18.95
2018-01-21T23:40:29.848Z,19.52
2018-01-21T23:42:57.770Z,18.90
2018-01-21T23:45:25.188Z,20.05
2018-01-21T23:47:52.600Z,20.23
2018-01-21T23:50:20.025Z,19.15
2018-01-21T23:52:47.441Z,18.73
2018-01-21T23:55:14.868Z,19.30
2018-01-21T23:57:42.297Z,19.55
